sensor_id;sensor_type;location;lat;lon;timestamp;temperature;humidity
43143;DHT22;28750;59.842;17.584;2023-03-23T00:01:30;6.50;99.90
43143;DHT22;28750;59.842;17.584;2023-03-23T00:04:02;6.40;99.90
43143;DHT22;28750;59.842;17.584;2023-03-23T00:06:29;6.30;99.90
43143;DHT22;28750;59.842;17.584;2023-03-23T00:08:58;6.30;99.90
43143;DHT22;28750;59.842;17.584;2023-03-23T00:11:31;6.30;99.90
43143;DHT22;28750;59.842;17.584;2023-03-23T00:14:00;6.30;99.90
43143;DHT22;28750;59.842;17.584;2023-03-23T00:16:30;6.20;99.90
43143;DHT22;28750;59.842;17.584;2023-03-23T00:19:03;6.30;99.90
43143;DHT22;28750;59.842;17.584;2023-03-23T00:21:34;6.30;99.90
43143;DHT22;28750;59.842;17.584;2023-03-23T00:26:33;6.10;99.90
43143;DHT22;28750;59.842;17.584;2023-03-23T00:29:02;6.10;99.90
43143;DHT22;28750;59.842;17.584;2023-03-23T00:31:30;6.10;99.90
43143;DHT22;28750;59.842;17.584;2023-03-23T00:34:03;6.20;99.90
43143;DHT22;28750;59.842;17.584;2023-03-23T00:36:32;6.10;99.90
43143;DHT22;28750;59.842;17.584;2023-03-23T00:39:03;6.10;99.90
43143;DHT22;28750;59.842;17.584;2023-03-23T00:41:30;6.10;99.90
43143;DHT22;28750;59.842;17.584;2023-03-23T00:43:58;6.00;99.90
43143;DHT22;28750;59.842;17.584;2023-03-23T00:46:27;6.00;99.90
43143;DHT22;28750;59.842;17.584;2023-03-23T00:48:55;5.90;99.90
43143;DHT22;28750;59.842;17.584;2023-03-23T00:51:23;5.80;99.90
43143;DHT22;28750;59.842;17.584;2023-03-23T00:53:51;5.80;99.90
43143;DHT22;28750;59.842;17.584;2023-03-23T00:56:18;5.70;99.90
43143;DHT22;28750;59.842;17.584;2023-03-23T00:58:45;5.60;99.90
43143;DHT22;28750;59.842;17.584;2023-03-23T01:01:12;5.60;99.90
43143;DHT22;28750;59.842;17.584;2023-03-23T01:03:38;5.50;99.90
43143;DHT22;28750;59.842;17.584;2023-03-23T01:06:08;5.40;99.90
43143;DHT22;28750;59.842;17.584;2023-03-23T01:08:39;5.50;99.90
43143;DHT22;28750;59.842;17.584;2023-03-23T01:11:12;5.40;99.90
43143;DHT22;28750;59.842;17.584;2023-03-23T01:13:40;5.40;99.90
43143;DHT22;28750;59.842;17.584;2023-03-23T01:16:08;5.30;99.90
43143;DHT22;28750;59.842;17.584;2023-03-23T01:18:36;5.30;99.90
43143;DHT22;28750;59.842;17.584;2023-03-23T01:21:15;5.30;99.90
43143;DHT22;28750;59.842;17.584;2023-03-23T01:23:43;5.30;99.90
43143;DHT22;28750;59.842;17.584;2023-03-23T01:26:13;5.30;99.90
43143;DHT22;28750;59.842;17.584;2023-03-23T01:28:41;5.10;99.90
43143;DHT22;28750;59.842;17.584;2023-03-23T01:31:14;5.10;99.90
43143;DHT22;28750;59.842;17.584;2023-03-23T01:33:43;5.00;99.90
43143;DHT22;28750;59.842;17.584;2023-03-23T01:36:16;5.10;99.90
43143;DHT22;28750;59.842;17.584;2023-03-23T01:38:44;5.00;99.90
43143;DHT22;28750;59.842;17.584;2023-03-23T01:41:12;5.00;99.90
43143;DHT22;28750;59.842;17.584;2023-03-23T01:46:26;5.10;99.90
43143;DHT22;28750;59.842;17.584;2023-03-23T01:48:55;5.00;99.90
43143;DHT22;28750;59.842;17.584;2023-03-23T01:51:24;5.00;99.90
43143;DHT22;28750;59.842;17.584;2023-03-23T01:54:00;4.90;99.90
43143;DHT22;28750;59.842;17.584;2023-03-23T01:56:34;4.90;99.90
43143;DHT22;28750;59.842;17.584;2023-03-23T01:59:08;4.80;99.90
43143;DHT22;28750;59.842;17.584;2023-03-23T02:01:36;4.90;99.90
43143;DHT22;28750;59.842;17.584;2023-03-23T02:04:05;4.90;99.90
43143;DHT22;28750;59.842;17.584;2023-03-23T02:06:33;4.80;99.90
43143;DHT22;28750;59.842;17.584;2023-03-23T02:09:00;4.80;99.90
43143;DHT22;28750;59.842;17.584;2023-03-23T02:11:28;4.80;99.90
43143;DHT22;28750;59.842;17.584;2023-03-23T02:13:55;4.70;99.90
43143;DHT22;28750;59.842;17.584;2023-03-23T02:18:58;4.80;99.90
43143;DHT22;28750;59.842;17.584;2023-03-23T02:27:11;4.70;99.90
43143;DHT22;28750;59.842;17.584;2023-03-23T02:35:37;4.60;99.90
43143;DHT22;28750;59.842;17.584;2023-03-23T02:38:15;4.50;99.90
43143;DHT22;28750;59.842;17.584;2023-03-23T02:40:46;4.60;99.90
43143;DHT22;28750;59.842;17.584;2023-03-23T02:43:18;4.60;99.90
43143;DHT22;28750;59.842;17.584;2023-03-23T02:45:46;4.60;99.90
43143;DHT22;28750;59.842;17.584;2023-03-23T02:48:15;4.50;99.90
43143;DHT22;28750;59.842;17.584;2023-03-23T02:50:45;4.60;99.90
43143;DHT22;28750;59.842;17.584;2023-03-23T02:53:16;4.50;99.90
43143;DHT22;28750;59.842;17.584;2023-03-23T02:55:44;4.50;99.90
43143;DHT22;28750;59.842;17.584;2023-03-23T02:58:12;4.50;99.90
43143;DHT22;28750;59.842;17.584;2023-03-23T03:00:39;4.40;99.90
43143;DHT22;28750;59.842;17.584;2023-03-23T03:03:12;4.40;99.90
43143;DHT22;28750;59.842;17.584;2023-03-23T03:11:06;4.40;99.90
43143;DHT22;28750;59.842;17.584;2023-03-23T03:16:14;4.50;99.90
43143;DHT22;28750;59.842;17.584;2023-03-23T03:18:59;4.40;99.90
43143;DHT22;28750;59.842;17.584;2023-03-23T03:21:30;4.50;99.90
43143;DHT22;28750;59.842;17.584;2023-03-23T03:24:02;4.50;99.90
43143;DHT22;28750;59.842;17.584;2023-03-23T03:26:31;4.50;99.90
43143;DHT22;28750;59.842;17.584;2023-03-23T03:29:01;4.50;99.90
43143;DHT22;28750;59.842;17.584;2023-03-23T03:31:32;4.40;99.90
43143;DHT22;28750;59.842;17.584;2023-03-23T03:34:00;4.40;99.90
43143;DHT22;28750;59.842;17.584;2023-03-23T03:36:32;4.40;99.90
43143;DHT22;28750;59.842;17.584;2023-03-23T03:39:04;4.30;99.90
43143;DHT22;28750;59.842;17.584;2023-03-23T03:41:37;4.40;99.90
43143;DHT22;28750;59.842;17.584;2023-03-23T03:44:04;4.40;99.90
43143;DHT22;28750;59.842;17.584;2023-03-23T03:46:33;4.40;99.90
43143;DHT22;28750;59.842;17.584;2023-03-23T03:49:03;4.40;99.90
43143;DHT22;28750;59.842;17.584;2023-03-23T03:51:31;4.40;99.90
43143;DHT22;28750;59.842;17.584;2023-03-23T03:53:58;4.40;99.90
43143;DHT22;28750;59.842;17.584;2023-03-23T03:56:25;4.40;99.90
43143;DHT22;28750;59.842;17.584;2023-03-23T03:58:53;4.40;99.90
43143;DHT22;28750;59.842;17.584;2023-03-23T04:01:21;4.30;99.90
43143;DHT22;28750;59.842;17.584;2023-03-23T04:03:50;4.40;99.90
43143;DHT22;28750;59.842;17.584;2023-03-23T04:06:17;4.30;99.90
43143;DHT22;28750;59.842;17.584;2023-03-23T04:08:45;4.30;99.90
43143;DHT22;28750;59.842;17.584;2023-03-23T04:11:13;4.40;99.90
43143;DHT22;28750;59.842;17.584;2023-03-23T04:13:40;4.20;99.90
43143;DHT22;28750;59.842;17.584;2023-03-23T04:16:08;4.40;99.90
43143;DHT22;28750;59.842;17.584;2023-03-23T04:18:35;4.40;99.90
43143;DHT22;28750;59.842;17.584;2023-03-23T04:21:03;4.50;99.90
43143;DHT22;28750;59.842;17.584;2023-03-23T04:23:33;4.50;99.90
43143;DHT22;28750;59.842;17.584;2023-03-23T04:26:01;4.50;99.90
43143;DHT22;28750;59.842;17.584;2023-03-23T04:28:28;4.50;99.90
43143;DHT22;28750;59.842;17.584;2023-03-23T04:30:59;4.60;99.90
43143;DHT22;28750;59.842;17.584;2023-03-23T04:33:29;4.60;99.90
43143;DHT22;28750;59.842;17.584;2023-03-23T04:36:00;4.60;99.90
43143;DHT22;28750;59.842;17.584;2023-03-23T04:38:28;4.60;99.90
43143;DHT22;28750;59.842;17.584;2023-03-23T04:40:58;4.70;99.90
43143;DHT22;28750;59.842;17.584;2023-03-23T04:43:26;4.70;99.90
43143;DHT22;28750;59.842;17.584;2023-03-23T04:45:54;4.60;99.90
43143;DHT22;28750;59.842;17.584;2023-03-23T04:48:27;4.70;99.90
43143;DHT22;28750;59.842;17.584;2023-03-23T04:50:55;4.70;99.90
43143;DHT22;28750;59.842;17.584;2023-03-23T04:53:25;4.70;99.90
43143;DHT22;28750;59.842;17.584;2023-03-23T04:55:52;4.70;99.90
43143;DHT22;28750;59.842;17.584;2023-03-23T04:58:19;4.70;99.90
43143;DHT22;28750;59.842;17.584;2023-03-23T05:00:46;4.80;99.90
43143;DHT22;28750;59.842;17.584;2023-03-23T05:03:18;4.80;99.90
43143;DHT22;28750;59.842;17.584;2023-03-23T05:05:46;4.80;99.90
43143;DHT22;28750;59.842;17.584;2023-03-23T05:08:21;4.90;99.90
43143;DHT22;28750;59.842;17.584;2023-03-23T05:10:59;4.90;99.90
43143;DHT22;28750;59.842;17.584;2023-03-23T05:13:29;4.90;99.90
43143;DHT22;28750;59.842;17.584;2023-03-23T05:15:56;5.00;99.90
43143;DHT22;28750;59.842;17.584;2023-03-23T05:18:23;4.90;99.90
43143;DHT22;28750;59.842;17.584;2023-03-23T05:20:51;5.00;99.90
43143;DHT22;28750;59.842;17.584;2023-03-23T05:23:19;5.00;99.90
43143;DHT22;28750;59.842;17.584;2023-03-23T05:25:54;5.00;99.90
43143;DHT22;28750;59.842;17.584;2023-03-23T05:28:22;5.00;99.90
43143;DHT22;28750;59.842;17.584;2023-03-23T05:30:49;5.00;99.90
43143;DHT22;28750;59.842;17.584;2023-03-23T05:33:16;5.00;99.90
43143;DHT22;28750;59.842;17.584;2023-03-23T05:35:43;5.00;99.90
43143;DHT22;28750;59.842;17.584;2023-03-23T05:38:09;5.00;99.90
43143;DHT22;28750;59.842;17.584;2023-03-23T05:40:36;5.10;99.90
43143;DHT22;28750;59.842;17.584;2023-03-23T05:43:03;5.10;99.90
43143;DHT22;28750;59.842;17.584;2023-03-23T05:45:30;5.10;99.90
43143;DHT22;28750;59.842;17.584;2023-03-23T05:47:57;5.10;99.90
43143;DHT22;28750;59.842;17.584;2023-03-23T05:50:24;5.10;99.90
43143;DHT22;28750;59.842;17.584;2023-03-23T05:52:54;5.20;99.90
43143;DHT22;28750;59.842;17.584;2023-03-23T05:55:21;5.20;99.90
43143;DHT22;28750;59.842;17.584;2023-03-23T05:57:48;5.20;99.90
43143;DHT22;28750;59.842;17.584;2023-03-23T06:00:15;5.20;99.90
43143;DHT22;28750;59.842;17.584;2023-03-23T06:02:48;5.20;99.90
43143;DHT22;28750;59.842;17.584;2023-03-23T06:05:16;5.30;99.90
43143;DHT22;28750;59.842;17.584;2023-03-23T06:07:45;5.30;99.90
43143;DHT22;28750;59.842;17.584;2023-03-23T06:10:12;5.40;99.90
43143;DHT22;28750;59.842;17.584;2023-03-23T06:12:39;5.40;99.90
43143;DHT22;28750;59.842;17.584;2023-03-23T06:15:08;5.50;99.90
43143;DHT22;28750;59.842;17.584;2023-03-23T06:17:35;5.60;99.90
43143;DHT22;28750;59.842;17.584;2023-03-23T06:20:06;5.70;99.90
43143;DHT22;28750;59.842;17.584;2023-03-23T06:22:39;5.70;99.90
43143;DHT22;28750;59.842;17.584;2023-03-23T06:25:08;5.70;99.90
43143;DHT22;28750;59.842;17.584;2023-03-23T06:27:37;5.60;99.90
43143;DHT22;28750;59.842;17.584;2023-03-23T06:30:04;5.60;99.90
43143;DHT22;28750;59.842;17.584;2023-03-23T06:32:32;5.60;99.90
43143;DHT22;28750;59.842;17.584;2023-03-23T06:34:59;5.70;99.90
43143;DHT22;28750;59.842;17.584;2023-03-23T06:37:27;5.90;99.90
43143;DHT22;28750;59.842;17.584;2023-03-23T06:39:54;5.90;99.90
43143;DHT22;28750;59.842;17.584;2023-03-23T06:42:22;6.00;99.90
43143;DHT22;28750;59.842;17.584;2023-03-23T06:44:51;6.10;99.90
43143;DHT22;28750;59.842;17.584;2023-03-23T06:47:21;6.10;99.90
43143;DHT22;28750;59.842;17.584;2023-03-23T06:49:49;6.00;99.90
43143;DHT22;28750;59.842;17.584;2023-03-23T06:52:16;5.90;99.90
43143;DHT22;28750;59.842;17.584;2023-03-23T06:54:43;6.00;99.90
43143;DHT22;28750;59.842;17.584;2023-03-23T06:57:10;6.10;99.90
43143;DHT22;28750;59.842;17.584;2023-03-23T06:59:37;6.10;99.90
43143;DHT22;28750;59.842;17.584;2023-03-23T07:02:04;6.00;99.90
43143;DHT22;28750;59.842;17.584;2023-03-23T07:04:31;6.00;99.90
43143;DHT22;28750;59.842;17.584;2023-03-23T07:06:58;6.00;99.90
43143;DHT22;28750;59.842;17.584;2023-03-23T07:09:26;6.00;99.90
43143;DHT22;28750;59.842;17.584;2023-03-23T07:11:53;6.20;99.90
43143;DHT22;28750;59.842;17.584;2023-03-23T07:14:20;6.30;99.90
43143;DHT22;28750;59.842;17.584;2023-03-23T07:16:48;6.40;99.90
43143;DHT22;28750;59.842;17.584;2023-03-23T07:19:17;6.20;1.00
43143;DHT22;28750;59.842;17.584;2023-03-23T07:21:47;6.30;3.60
43143;DHT22;28750;59.842;17.584;2023-03-23T07:24:14;6.30;1.00
43143;DHT22;28750;59.842;17.584;2023-03-23T07:26:42;6.50;1.00
43143;DHT22;28750;59.842;17.584;2023-03-23T07:29:10;6.30;1.00
43143;DHT22;28750;59.842;17.584;2023-03-23T07:31:50;6.50;1.00
43143;DHT22;28750;59.842;17.584;2023-03-23T07:34:32;6.40;99.90
43143;DHT22;28750;59.842;17.584;2023-03-23T07:36:59;6.60;99.90
43143;DHT22;28750;59.842;17.584;2023-03-23T07:39:26;6.40;99.90
43143;DHT22;28750;59.842;17.584;2023-03-23T07:41:53;6.40;99.90
43143;DHT22;28750;59.842;17.584;2023-03-23T07:44:20;6.40;99.90
43143;DHT22;28750;59.842;17.584;2023-03-23T07:46:48;6.30;99.90
43143;DHT22;28750;59.842;17.584;2023-03-23T07:49:14;6.60;99.90
43143;DHT22;28750;59.842;17.584;2023-03-23T07:51:43;6.60;38.60
43143;DHT22;28750;59.842;17.584;2023-03-23T07:54:10;6.90;99.90
43143;DHT22;28750;59.842;17.584;2023-03-23T07:56:37;6.80;1.00
43143;DHT22;28750;59.842;17.584;2023-03-23T07:59:06;6.90;1.00
43143;DHT22;28750;59.842;17.584;2023-03-23T08:01:33;6.90;99.90
43143;DHT22;28750;59.842;17.584;2023-03-23T08:04:00;6.90;1.00
43143;DHT22;28750;59.842;17.584;2023-03-23T08:06:27;7.10;1.00
43143;DHT22;28750;59.842;17.584;2023-03-23T08:08:54;7.10;99.90
43143;DHT22;28750;59.842;17.584;2023-03-23T08:11:23;7.30;99.90
43143;DHT22;28750;59.842;17.584;2023-03-23T08:13:50;7.20;99.90
43143;DHT22;28750;59.842;17.584;2023-03-23T08:16:17;7.40;99.90
43143;DHT22;28750;59.842;17.584;2023-03-23T08:18:45;7.50;99.90
43143;DHT22;28750;59.842;17.584;2023-03-23T08:21:12;7.90;99.90
43143;DHT22;28750;59.842;17.584;2023-03-23T08:23:39;8.50;1.00
43143;DHT22;28750;59.842;17.584;2023-03-23T08:26:08;8.40;99.90
43143;DHT22;28750;59.842;17.584;2023-03-23T08:28:36;7.80;99.90
43143;DHT22;28750;59.842;17.584;2023-03-23T08:31:10;7.50;99.90
43143;DHT22;28750;59.842;17.584;2023-03-23T08:33:39;7.60;1.00
43143;DHT22;28750;59.842;17.584;2023-03-23T08:36:07;7.60;1.00
43143;DHT22;28750;59.842;17.584;2023-03-23T08:38:34;7.90;1.00
43143;DHT22;28750;59.842;17.584;2023-03-23T08:41:03;8.10;99.90
43143;DHT22;28750;59.842;17.584;2023-03-23T08:43:33;8.00;1.00
43143;DHT22;28750;59.842;17.584;2023-03-23T08:46:00;7.80;99.90
43143;DHT22;28750;59.842;17.584;2023-03-23T08:48:35;7.90;99.90
43143;DHT22;28750;59.842;17.584;2023-03-23T08:51:04;8.30;99.90
43143;DHT22;28750;59.842;17.584;2023-03-23T08:53:32;8.60;99.90
43143;DHT22;28750;59.842;17.584;2023-03-23T08:56:07;8.50;8.10
43143;DHT22;28750;59.842;17.584;2023-03-23T08:58:36;7.80;1.00
43143;DHT22;28750;59.842;17.584;2023-03-23T09:01:06;8.10;99.90
43143;DHT22;28750;59.842;17.584;2023-03-23T09:03:35;8.60;99.90
43143;DHT22;28750;59.842;17.584;2023-03-23T09:06:05;8.20;1.00
43143;DHT22;28750;59.842;17.584;2023-03-23T09:08:33;7.90;1.00
43143;DHT22;28750;59.842;17.584;2023-03-23T09:11:02;7.90;1.00
43143;DHT22;28750;59.842;17.584;2023-03-23T09:13:30;8.00;1.00
43143;DHT22;28750;59.842;17.584;2023-03-23T09:15:58;8.00;1.00
43143;DHT22;28750;59.842;17.584;2023-03-23T09:18:25;8.20;1.00
43143;DHT22;28750;59.842;17.584;2023-03-23T09:20:55;8.20;1.00
43143;DHT22;28750;59.842;17.584;2023-03-23T09:23:22;8.30;99.90
43143;DHT22;28750;59.842;17.584;2023-03-23T09:25:49;8.10;99.90
43143;DHT22;28750;59.842;17.584;2023-03-23T09:28:17;8.00;99.90
43143;DHT22;28750;59.842;17.584;2023-03-23T09:30:45;8.30;99.90
43143;DHT22;28750;59.842;17.584;2023-03-23T09:33:13;8.50;99.90
43143;DHT22;28750;59.842;17.584;2023-03-23T09:35:41;8.80;1.00
43143;DHT22;28750;59.842;17.584;2023-03-23T09:38:10;8.50;1.00
43143;DHT22;28750;59.842;17.584;2023-03-23T09:40:46;8.80;99.90
43143;DHT22;28750;59.842;17.584;2023-03-23T09:48:56;9.00;99.90
43143;DHT22;28750;59.842;17.584;2023-03-23T09:51:46;8.70;99.90
43143;DHT22;28750;59.842;17.584;2023-03-23T09:56:54;9.50;99.90
43143;DHT22;28750;59.842;17.584;2023-03-23T10:00:10;10.10;1.00
43143;DHT22;28750;59.842;17.584;2023-03-23T10:02:28;10.50;99.90
43143;DHT22;28750;59.842;17.584;2023-03-23T10:07:43;10.90;99.90
43143;DHT22;28750;59.842;17.584;2023-03-23T10:10:13;11.20;24.80
43143;DHT22;28750;59.842;17.584;2023-03-23T10:12:57;10.70;1.00
43143;DHT22;28750;59.842;17.584;2023-03-23T10:15:30;10.40;1.00
43143;DHT22;28750;59.842;17.584;2023-03-23T10:18:02;11.00;1.00
43143;DHT22;28750;59.842;17.584;2023-03-23T10:25:36;12.40;99.90
43143;DHT22;28750;59.842;17.584;2023-03-23T10:28:17;11.50;99.90
43143;DHT22;28750;59.842;17.584;2023-03-23T10:30:55;11.40;99.90
43143;DHT22;28750;59.842;17.584;2023-03-23T10:33:47;11.40;99.90
43143;DHT22;28750;59.842;17.584;2023-03-23T10:36:19;12.40;99.90
43143;DHT22;28750;59.842;17.584;2023-03-23T10:41:20;11.90;1.00
43143;DHT22;28750;59.842;17.584;2023-03-23T10:43:47;12.60;93.10
43143;DHT22;28750;59.842;17.584;2023-03-23T10:46:19;13.00;1.00
43143;DHT22;28750;59.842;17.584;2023-03-23T10:48:50;12.90;99.90
43143;DHT22;28750;59.842;17.584;2023-03-23T10:51:20;12.80;99.90
43143;DHT22;28750;59.842;17.584;2023-03-23T10:53:56;12.80;99.90
43143;DHT22;28750;59.842;17.584;2023-03-23T10:56:42;13.10;99.90
43143;DHT22;28750;59.842;17.584;2023-03-23T10:59:30;13.10;99.90
43143;DHT22;28750;59.842;17.584;2023-03-23T11:02:00;12.60;99.90
43143;DHT22;28750;59.842;17.584;2023-03-23T11:04:30;12.80;99.90
43143;DHT22;28750;59.842;17.584;2023-03-23T11:07:01;12.90;99.90
43143;DHT22;28750;59.842;17.584;2023-03-23T11:09:37;13.80;99.90
43143;DHT22;28750;59.842;17.584;2023-03-23T11:12:04;14.40;99.90
43143;DHT22;28750;59.842;17.584;2023-03-23T11:14:42;14.20;99.90
43143;DHT22;28750;59.842;17.584;2023-03-23T11:17:25;13.70;99.90
43143;DHT22;28750;59.842;17.584;2023-03-23T11:19:53;13.80;99.90
43143;DHT22;28750;59.842;17.584;2023-03-23T11:22:29;14.50;99.90
43143;DHT22;28750;59.842;17.584;2023-03-23T11:25:03;15.10;99.90
43143;DHT22;28750;59.842;17.584;2023-03-23T11:27:31;14.50;90.90
43143;DHT22;28750;59.842;17.584;2023-03-23T11:30:11;14.10;50.20
43143;DHT22;28750;59.842;17.584;2023-03-23T11:32:45;14.50;12.40
43143;DHT22;28750;59.842;17.584;2023-03-23T11:35:21;14.40;77.80
43143;DHT22;28750;59.842;17.584;2023-03-23T11:37:54;14.80;1.00
43143;DHT22;28750;59.842;17.584;2023-03-23T11:40:26;14.10;1.00
43143;DHT22;28750;59.842;17.584;2023-03-23T11:45:35;14.40;38.10
43143;DHT22;28750;59.842;17.584;2023-03-23T11:51:11;15.40;1.00
43143;DHT22;28750;59.842;17.584;2023-03-23T11:54:15;14.80;1.00
43143;DHT22;28750;59.842;17.584;2023-03-23T11:56:44;15.00;1.00
43143;DHT22;28750;59.842;17.584;2023-03-23T11:59:30;14.60;99.90
43143;DHT22;28750;59.842;17.584;2023-03-23T12:24:33;14.50;99.90
43143;DHT22;28750;59.842;17.584;2023-03-23T12:30:09;14.70;99.90
43143;DHT22;28750;59.842;17.584;2023-03-23T12:39:41;15.50;99.90
43143;DHT22;28750;59.842;17.584;2023-03-23T12:42:31;14.70;99.90
43143;DHT22;28750;59.842;17.584;2023-03-23T12:53:08;15.00;99.90
43143;DHT22;28750;59.842;17.584;2023-03-23T12:58:22;15.10;99.90
43143;DHT22;28750;59.842;17.584;2023-03-23T13:03:49;13.90;99.90
43143;DHT22;28750;59.842;17.584;2023-03-23T13:06:27;14.50;99.90
43143;DHT22;28750;59.842;17.584;2023-03-23T13:09:04;14.60;99.90
43143;DHT22;28750;59.842;17.584;2023-03-23T13:11:38;14.80;99.90
43143;DHT22;28750;59.842;17.584;2023-03-23T13:22:39;14.70;99.90
43143;DHT22;28750;59.842;17.584;2023-03-23T13:25:13;14.70;99.90
43143;DHT22;28750;59.842;17.584;2023-03-23T13:27:42;15.00;99.90
43143;DHT22;28750;59.842;17.584;2023-03-23T13:30:20;14.90;99.90
43143;DHT22;28750;59.842;17.584;2023-03-23T13:32:50;14.70;99.90
43143;DHT22;28750;59.842;17.584;2023-03-23T13:35:19;15.00;99.90
43143;DHT22;28750;59.842;17.584;2023-03-23T13:37:49;14.70;99.90
43143;DHT22;28750;59.842;17.584;2023-03-23T13:40:26;14.90;99.90
43143;DHT22;28750;59.842;17.584;2023-03-23T13:42:59;14.60;99.90
43143;DHT22;28750;59.842;17.584;2023-03-23T13:48:20;14.10;99.90
43143;DHT22;28750;59.842;17.584;2023-03-23T13:53:29;14.10;99.90
43143;DHT22;28750;59.842;17.584;2023-03-23T13:56:13;13.80;99.90
43143;DHT22;28750;59.842;17.584;2023-03-23T13:58:47;13.60;99.90
43143;DHT22;28750;59.842;17.584;2023-03-23T14:01:18;13.60;99.90
43143;DHT22;28750;59.842;17.584;2023-03-23T14:03:49;13.40;99.90
43143;DHT22;28750;59.842;17.584;2023-03-23T14:06:22;13.30;99.90
43143;DHT22;28750;59.842;17.584;2023-03-23T14:08:54;13.20;99.90
43143;DHT22;28750;59.842;17.584;2023-03-23T14:11:26;12.70;99.90
43143;DHT22;28750;59.842;17.584;2023-03-23T14:14:01;12.80;99.90
43143;DHT22;28750;59.842;17.584;2023-03-23T14:16:41;12.80;99.90
43143;DHT22;28750;59.842;17.584;2023-03-23T14:19:18;12.90;99.90
43143;DHT22;28750;59.842;17.584;2023-03-23T14:21:52;13.00;99.90
43143;DHT22;28750;59.842;17.584;2023-03-23T14:24:25;12.70;99.90
43143;DHT22;28750;59.842;17.584;2023-03-23T14:29:34;12.20;99.90
43143;DHT22;28750;59.842;17.584;2023-03-23T14:32:04;12.20;99.90
43143;DHT22;28750;59.842;17.584;2023-03-23T14:34:32;12.20;99.90
43143;DHT22;28750;59.842;17.584;2023-03-23T14:37:00;12.20;99.90
43143;DHT22;28750;59.842;17.584;2023-03-23T14:39:29;11.80;99.90
43143;DHT22;28750;59.842;17.584;2023-03-23T14:42:03;11.90;99.90
43143;DHT22;28750;59.842;17.584;2023-03-23T14:44:35;11.90;99.90
43143;DHT22;28750;59.842;17.584;2023-03-23T14:47:26;11.90;99.90
43143;DHT22;28750;59.842;17.584;2023-03-23T14:49:56;11.80;99.90
43143;DHT22;28750;59.842;17.584;2023-03-23T14:52:35;11.90;99.90
43143;DHT22;28750;59.842;17.584;2023-03-23T14:55:22;12.10;99.90
43143;DHT22;28750;59.842;17.584;2023-03-23T14:57:51;12.00;99.90
43143;DHT22;28750;59.842;17.584;2023-03-23T15:00:22;11.80;99.90
43143;DHT22;28750;59.842;17.584;2023-03-23T15:02:51;11.50;99.90
43143;DHT22;28750;59.842;17.584;2023-03-23T15:05:29;11.40;99.90
43143;DHT22;28750;59.842;17.584;2023-03-23T15:11:40;11.30;1.00
43143;DHT22;28750;59.842;17.584;2023-03-23T15:13:45;11.20;1.00
43143;DHT22;28750;59.842;17.584;2023-03-23T15:16:18;10.90;28.10
43143;DHT22;28750;59.842;17.584;2023-03-23T15:21:29;11.10;8.70
43143;DHT22;28750;59.842;17.584;2023-03-23T15:23:57;11.10;66.30
43143;DHT22;28750;59.842;17.584;2023-03-23T15:26:32;11.20;1.00
43143;DHT22;28750;59.842;17.584;2023-03-23T15:29:11;11.30;1.00
43143;DHT22;28750;59.842;17.584;2023-03-23T15:31:40;11.10;1.00
43143;DHT22;28750;59.842;17.584;2023-03-23T15:34:30;11.00;1.00
43143;DHT22;28750;59.842;17.584;2023-03-23T15:37:02;11.10;1.00
43143;DHT22;28750;59.842;17.584;2023-03-23T15:39:30;11.00;1.00
43143;DHT22;28750;59.842;17.584;2023-03-23T15:41:58;11.00;1.00
43143;DHT22;28750;59.842;17.584;2023-03-23T15:44:32;10.70;1.00
43143;DHT22;28750;59.842;17.584;2023-03-23T15:47:19;10.70;1.00
43143;DHT22;28750;59.842;17.584;2023-03-23T15:49:59;10.80;1.00
43143;DHT22;28750;59.842;17.584;2023-03-23T15:52:28;10.70;1.00
43143;DHT22;28750;59.842;17.584;2023-03-23T15:54:55;10.50;82.30
43143;DHT22;28750;59.842;17.584;2023-03-23T15:57:22;10.40;99.90
43143;DHT22;28750;59.842;17.584;2023-03-23T15:59:48;10.40;99.90
43143;DHT22;28750;59.842;17.584;2023-03-23T16:02:21;10.40;99.90
43143;DHT22;28750;59.842;17.584;2023-03-23T16:04:50;10.30;99.90
43143;DHT22;28750;59.842;17.584;2023-03-23T16:07:21;10.30;99.90
43143;DHT22;28750;59.842;17.584;2023-03-23T16:09:49;10.00;99.90
43143;DHT22;28750;59.842;17.584;2023-03-23T16:12:15;9.90;99.90
43143;DHT22;28750;59.842;17.584;2023-03-23T16:14:42;9.90;99.90
43143;DHT22;28750;59.842;17.584;2023-03-23T16:17:16;10.10;99.90
43143;DHT22;28750;59.842;17.584;2023-03-23T16:19:44;9.70;99.90
43143;DHT22;28750;59.842;17.584;2023-03-23T16:22:11;9.60;1.00
43143;DHT22;28750;59.842;17.584;2023-03-23T16:24:38;9.30;47.50
43143;DHT22;28750;59.842;17.584;2023-03-23T16:27:05;9.20;99.90
43143;DHT22;28750;59.842;17.584;2023-03-23T16:29:31;9.00;99.90
43143;DHT22;28750;59.842;17.584;2023-03-23T16:31:59;8.80;99.90
43143;DHT22;28750;59.842;17.584;2023-03-23T16:34:26;8.60;1.00
43143;DHT22;28750;59.842;17.584;2023-03-23T16:36:54;8.70;1.00
43143;DHT22;28750;59.842;17.584;2023-03-23T16:39:21;8.60;19.20
43143;DHT22;28750;59.842;17.584;2023-03-23T16:41:48;8.50;99.90
43143;DHT22;28750;59.842;17.584;2023-03-23T16:44:15;8.50;99.90
43143;DHT22;28750;59.842;17.584;2023-03-23T16:46:42;8.40;99.90
43143;DHT22;28750;59.842;17.584;2023-03-23T16:49:09;8.30;99.90
43143;DHT22;28750;59.842;17.584;2023-03-23T16:51:36;8.10;99.90
43143;DHT22;28750;59.842;17.584;2023-03-23T16:54:03;8.10;99.90
43143;DHT22;28750;59.842;17.584;2023-03-23T16:56:31;8.00;99.90
43143;DHT22;28750;59.842;17.584;2023-03-23T16:58:58;8.00;1.00
43143;DHT22;28750;59.842;17.584;2023-03-23T17:01:25;7.90;1.00
43143;DHT22;28750;59.842;17.584;2023-03-23T17:03:51;7.80;1.00
43143;DHT22;28750;59.842;17.584;2023-03-23T17:06:20;7.70;46.70
43143;DHT22;28750;59.842;17.584;2023-03-23T17:08:47;7.50;90.10
43143;DHT22;28750;59.842;17.584;2023-03-23T17:11:14;7.50;99.90
43143;DHT22;28750;59.842;17.584;2023-03-23T17:13:41;7.40;99.90
43143;DHT22;28750;59.842;17.584;2023-03-23T17:16:08;7.40;99.90
43143;DHT22;28750;59.842;17.584;2023-03-23T17:18:35;7.30;99.90
43143;DHT22;28750;59.842;17.584;2023-03-23T17:21:02;7.10;1.00
43143;DHT22;28750;59.842;17.584;2023-03-23T17:23:29;7.10;1.00
43143;DHT22;28750;59.842;17.584;2023-03-23T17:25:57;7.10;16.10
43143;DHT22;28750;59.842;17.584;2023-03-23T17:28:24;7.10;1.00
43143;DHT22;28750;59.842;17.584;2023-03-23T17:30:51;6.90;1.00
43143;DHT22;28750;59.842;17.584;2023-03-23T17:33:18;6.90;20.60
43143;DHT22;28750;59.842;17.584;2023-03-23T17:35:46;6.80;83.90
43143;DHT22;28750;59.842;17.584;2023-03-23T17:38:16;6.70;99.90
43143;DHT22;28750;59.842;17.584;2023-03-23T17:40:43;6.50;99.90
43143;DHT22;28750;59.842;17.584;2023-03-23T17:43:10;6.60;99.90
43143;DHT22;28750;59.842;17.584;2023-03-23T17:45:37;6.60;99.90
43143;DHT22;28750;59.842;17.584;2023-03-23T17:48:04;6.70;99.90
43143;DHT22;28750;59.842;17.584;2023-03-23T17:50:33;6.70;99.90